createdAt,value
2023-04-18T00:00:56.213Z,9.1561
2023-04-18T00:01:59.316Z,9.2081
2023-04-18T00:03:04.429Z,9.1582
2023-04-18T00:04:05.250Z,9.1011
2023-04-18T00:05:08.043Z,8.9513
2023-04-18T00:06:10.985Z,8.9082
2023-04-18T00:07:13.920Z,9.1280
2023-04-18T00:08:16.895Z,9.1202
2023-04-18T00:09:19.865Z,9.0530
2023-04-18T00:10:22.765Z,9.0978
2023-04-18T00:11:25.811Z,9.0561
2023-04-18T00:12:28.665Z,9.0162
2023-04-18T00:13:31.617Z,9.0620
2023-04-18T00:14:34.614Z,8.8090
2023-04-18T00:15:37.539Z,8.7944
2023-04-18T00:16:40.538Z,8.7726
2023-04-18T00:17:43.491Z,9.0908
2023-04-18T00:18:46.392Z,8.9928
2023-04-18T00:19:49.320Z,9.1442
2023-04-18T00:20:52.257Z,9.2391
2023-04-18T00:21:55.232Z,9.0429
2023-04-18T00:22:58.148Z,8.9830
2023-04-18T00:24:01.120Z,9.0168
2023-04-18T00:25:04.065Z,8.8209
2023-04-18T00:26:07.061Z,8.9577
2023-04-18T00:27:10.089Z,9.1290
2023-04-18T00:28:12.910Z,8.9587
2023-04-18T00:29:15.856Z,8.7794
2023-04-18T00:30:18.827Z,9.1292
2023-04-18T00:31:21.805Z,8.9918
2023-04-18T00:32:24.741Z,8.9803
2023-04-18T00:33:27.645Z,8.9852
2023-04-18T00:34:30.607Z,9.0290
2023-04-18T00:35:33.555Z,9.0594
2023-04-18T00:36:36.505Z,9.0090
2023-04-18T00:37:39.485Z,9.0144
2023-04-18T00:38:42.395Z,9.0433
2023-04-18T00:39:45.346Z,9.0253
2023-04-18T00:40:48.311Z,9.0374
2023-04-18T00:41:51.304Z,8.8731
2023-04-18T00:42:54.215Z,8.9875
2023-04-18T00:43:57.161Z,9.1600
2023-04-18T00:45:00.132Z,9.0838
2023-04-18T00:46:03.075Z,9.2927
2023-04-18T00:47:06.038Z,9.1902
2023-04-18T00:48:09.003Z,9.1723
2023-04-18T00:49:11.958Z,9.2683
2023-04-18T00:50:14.870Z,9.2781
2023-04-18T00:51:17.812Z,9.1779
2023-04-18T00:52:20.742Z,9.2455
2023-04-18T00:53:23.720Z,9.2541
2023-04-18T00:54:26.688Z,9.1041
2023-04-18T00:55:29.582Z,9.2262
2023-04-18T00:56:32.585Z,9.2159
2023-04-18T00:57:35.489Z,8.9392
2023-04-18T00:58:38.433Z,9.1656
2023-04-18T00:59:41.458Z,9.2393
2023-04-18T01:00:44.317Z,9.3363
2023-04-18T01:01:47.331Z,9.2861
2023-04-18T01:02:50.346Z,9.3192
2023-04-18T01:03:53.291Z,9.2465
2023-04-18T01:04:56.163Z,9.1594
2023-04-18T01:05:59.091Z,9.1993
2023-04-18T01:07:02.034Z,9.1017
2023-04-18T01:08:04.986Z,9.1559
2023-04-18T01:09:07.914Z,9.1633
2023-04-18T01:10:10.860Z,9.1463
2023-04-18T01:11:13.807Z,9.2381
2023-04-18T01:12:16.764Z,9.2025
2023-04-18T01:13:19.705Z,9.2902
2023-04-18T01:14:22.674Z,9.2066
2023-04-18T01:15:25.606Z,9.2500
2023-04-18T01:16:28.627Z,9.2578
2023-04-18T01:17:31.570Z,9.2950
2023-04-18T01:18:34.448Z,9.2633
2023-04-18T01:19:37.420Z,9.0740
2023-04-18T01:20:40.388Z,9.3856
2023-04-18T01:21:43.294Z,9.2952
2023-04-18T01:22:46.255Z,9.4453
2023-04-18T01:23:49.199Z,9.1269
2023-04-18T01:24:52.141Z,9.1949
2023-04-18T01:25:55.090Z,9.2919
2023-04-18T01:26:58.049Z,9.1539
2023-04-18T01:28:00.979Z,8.9875
2023-04-18T01:29:03.979Z,9.1269
2023-04-18T01:30:06.872Z,9.0955
2023-04-18T01:31:09.848Z,9.1941
2023-04-18T01:32:12.850Z,9.2038
2023-04-18T01:33:15.871Z,9.2307
2023-04-18T01:34:18.775Z,9.2783
2023-04-18T01:35:21.720Z,9.1191
2023-04-18T01:36:24.662Z,9.2479
2023-04-18T01:37:27.612Z,9.3730
2023-04-18T01:38:30.536Z,9.3749
2023-04-18T01:39:33.653Z,9.3665
2023-04-18T01:40:36.439Z,9.3845
2023-04-18T01:41:39.387Z,9.2987
2023-04-18T01:42:42.343Z,9.2617
2023-04-18T01:43:45.311Z,9.3827
2023-04-18T01:44:48.232Z,9.2294
2023-04-18T01:45:51.223Z,9.1323
2023-04-18T01:46:54.163Z,9.3683
2023-04-18T01:47:57.184Z,9.4170
2023-04-18T01:49:00.051Z,9.4675
2023-04-18T01:50:02.962Z,9.2896
2023-04-18T01:51:05.909Z,9.1214
2023-04-18T01:52:08.900Z,9.3243
2023-04-18T01:53:11.828Z,9.2835
2023-04-18T01:54:14.856Z,9.3036
2023-04-18T01:55:17.695Z,9.1910
2023-04-18T01:56:20.661Z,9.1461
2023-04-18T01:57:23.605Z,9.1723
2023-04-18T01:58:26.557Z,9.1699
2023-04-18T01:59:29.497Z,9.2403
2023-04-18T02:00:32.459Z,9.1787
2023-04-18T02:01:35.373Z,9.2845
2023-04-18T02:02:38.440Z,9.2779
2023-04-18T02:03:41.505Z,9.2112
2023-04-18T02:04:44.281Z,8.8601
2023-04-18T02:05:47.166Z,9.0898
2023-04-18T02:06:50.109Z,9.0551
2023-04-18T02:07:53.072Z,9.2188
2023-04-18T02:08:56.009Z,9.2670
2023-04-18T02:09:58.944Z,9.2391
2023-04-18T02:11:01.924Z,9.1982
2023-04-18T02:12:04.852Z,9.2652
2023-04-18T02:13:07.835Z,9.1660
2023-04-18T02:14:10.771Z,9.2488
2023-04-18T02:15:13.697Z,9.2845
2023-04-18T02:16:16.681Z,9.2648
2023-04-18T02:17:19.577Z,9.2824
2023-04-18T02:18:22.540Z,9.2403
2023-04-18T02:19:25.481Z,9.2750
2023-04-18T02:20:28.434Z,9.2401
2023-04-18T02:21:31.492Z,9.2933
2023-04-18T02:22:34.308Z,9.2833
2023-04-18T02:23:37.330Z,9.1799
2023-04-18T02:24:40.210Z,9.0355
2023-04-18T02:25:43.174Z,9.1740
2023-04-18T02:26:46.106Z,9.0078
2023-04-18T02:27:49.082Z,9.0892
2023-04-18T02:28:52.012Z,9.1269
2023-04-18T02:29:54.955Z,9.2286
2023-04-18T02:30:57.894Z,9.1070
2023-04-18T02:32:00.921Z,9.2705
2023-04-18T02:33:03.841Z,9.2383
2023-04-18T02:34:06.794Z,9.2520
2023-04-18T02:35:09.765Z,9.3274
2023-04-18T02:36:12.654Z,8.9193
2023-04-18T02:37:15.571Z,9.3652
2023-04-18T02:38:18.549Z,9.2716
2023-04-18T02:39:21.483Z,9.1573
2023-04-18T02:40:24.464Z,9.1793
2023-04-18T02:41:27.370Z,9.0740
2023-04-18T02:42:30.318Z,9.3911
2023-04-18T02:43:33.276Z,9.3149
2023-04-18T02:44:36.278Z,9.4373
2023-04-18T02:45:39.182Z,9.2726
2023-04-18T02:46:42.109Z,9.0530
2023-04-18T02:47:54.440Z,9.3428
2023-04-18T02:48:48.043Z,9.2570
2023-04-18T02:49:51.226Z,9.1980
2023-04-18T02:50:53.953Z,9.2196
2023-04-18T02:51:56.869Z,9.2079
2023-04-18T02:52:59.896Z,9.2512
2023-04-18T02:54:02.772Z,9.3038
2023-04-18T02:55:05.752Z,9.2790
2023-04-18T02:56:08.675Z,9.2336
2023-04-18T02:57:11.655Z,9.2866
2023-04-18T02:58:14.608Z,9.3094
2023-04-18T02:59:17.570Z,9.3525
2023-04-18T03:00:20.540Z,9.4987
2023-04-18T03:01:23.523Z,9.4776
2023-04-18T03:02:26.602Z,9.4040
2023-04-18T03:03:29.423Z,9.3525
2023-04-18T03:04:32.412Z,9.4287
2023-04-18T03:05:35.326Z,9.4248
2023-04-18T03:06:38.291Z,9.2944
2023-04-18T03:07:41.237Z,9.1021
2023-04-18T03:08:44.278Z,9.3071
2023-04-18T03:09:47.142Z,9.2407
2023-04-18T03:10:50.087Z,9.3102
2023-04-18T03:11:53.052Z,9.3492
2023-04-18T03:12:55.992Z,9.4055
2023-04-18T03:13:58.940Z,9.4332
2023-04-18T03:15:01.902Z,9.3566
2023-04-18T03:16:04.935Z,9.4180
2023-04-18T03:17:07.802Z,9.3827
2023-04-18T03:18:10.755Z,9.4192
2023-04-18T03:19:13.751Z,9.3946
2023-04-18T03:20:16.725Z,9.4065
2023-04-18T03:21:19.634Z,9.3264
2023-04-18T03:22:22.577Z,9.3718
2023-04-18T03:23:25.550Z,9.4110
2023-04-18T03:24:28.486Z,9.3124
2023-04-18T03:25:31.506Z,9.1896
2023-04-18T03:26:34.403Z,9.3363
2023-04-18T03:27:37.546Z,9.4698
2023-04-18T03:28:40.416Z,9.4519
2023-04-18T03:29:43.291Z,9.4474
2023-04-18T03:30:46.280Z,9.4373
2023-04-18T03:31:49.251Z,9.4507
2023-04-18T03:32:52.171Z,9.4221
2023-04-18T03:33:55.141Z,9.4562
2023-04-18T03:34:58.184Z,9.3660
2023-04-18T03:36:01.097Z,9.3849
2023-04-18T03:37:03.997Z,9.4494
2023-04-18T03:38:06.940Z,9.4340
2023-04-18T03:39:09.891Z,9.4529
2023-04-18T03:40:12.860Z,9.4720
2023-04-18T03:41:15.794Z,9.5735
2023-04-18T03:42:18.810Z,9.4605
2023-04-18T03:43:21.682Z,9.3967
2023-04-18T03:44:24.688Z,9.3825
2023-04-18T03:45:27.593Z,9.3554
2023-04-18T03:46:30.670Z,9.4043
2023-04-18T03:47:33.561Z,9.3395
2023-04-18T03:48:36.450Z,9.3812
2023-04-18T03:49:39.400Z,9.3305
2023-04-18T03:50:42.355Z,9.4043
2023-04-18T03:51:45.285Z,9.3223
2023-04-18T03:52:48.350Z,9.3371
2023-04-18T03:53:51.228Z,9.4301
2023-04-18T03:54:54.146Z,9.3934
2023-04-18T03:55:57.121Z,9.3623
2023-04-18T03:57:00.048Z,9.3880
2023-04-18T03:58:02.992Z,9.3589
2023-04-18T03:59:05.953Z,9.2888
2023-04-18T04:00:08.898Z,9.3773
2023-04-18T04:01:11.881Z,9.4108
2023-04-18T04:02:14.887Z,9.3753
2023-04-18T04:03:17.959Z,9.3656
2023-04-18T04:04:20.809Z,9.4423
2023-04-18T04:05:23.702Z,9.5367
2023-04-18T04:06:26.618Z,9.4566
2023-04-18T04:07:29.566Z,9.4624
2023-04-18T04:08:32.520Z,9.4332
2023-04-18T04:09:35.478Z,9.4098
2023-04-18T04:10:38.514Z,9.4312
2023-04-18T04:11:41.535Z,9.3979
2023-04-18T04:12:44.327Z,9.4211
2023-04-18T04:13:47.318Z,9.4977
2023-04-18T04:14:50.219Z,9.4063
2023-04-18T04:15:53.374Z,9.4420
2023-04-18T04:16:56.168Z,9.4603
2023-04-18T04:17:59.114Z,9.4669
2023-04-18T04:19:02.041Z,9.4807
2023-04-18T04:20:05.011Z,9.5150
2023-04-18T04:21:07.948Z,9.5090
2023-04-18T04:22:10.919Z,9.4913
2023-04-18T04:23:13.848Z,9.4975
2023-04-18T04:24:16.912Z,9.4731
2023-04-18T04:25:19.747Z,9.5259
2023-04-18T04:26:22.735Z,9.2757
2023-04-18T04:27:25.642Z,9.3868
2023-04-18T04:28:28.604Z,9.4367
2023-04-18T04:29:31.589Z,9.3880
2023-04-18T04:30:34.499Z,9.5068
2023-04-18T04:31:37.485Z,9.4082
2023-04-18T04:32:40.505Z,9.4386
2023-04-18T04:33:43.351Z,9.4160
2023-04-18T04:34:46.331Z,9.4268
2023-04-18T04:35:49.252Z,9.3977
2023-04-18T04:36:52.231Z,9.4870
2023-04-18T04:37:55.161Z,9.4158
2023-04-18T04:38:58.107Z,9.4556
2023-04-18T04:40:01.061Z,9.4944
2023-04-18T04:41:04.038Z,9.4981
2023-04-18T04:42:06.949Z,9.4948
2023-04-18T04:43:10.033Z,9.4708
2023-04-18T04:44:13.143Z,9.4690
2023-04-18T04:45:15.884Z,9.5100
2023-04-18T04:46:18.820Z,9.4523
2023-04-18T04:47:21.718Z,9.4743
2023-04-18T04:48:24.677Z,9.5659
2023-04-18T04:49:27.654Z,9.5441
2023-04-18T04:50:30.601Z,9.5821
2023-04-18T04:51:33.521Z,9.5187
2023-04-18T04:52:36.467Z,9.4535
2023-04-18T04:53:39.421Z,9.4406
2023-04-18T04:54:42.373Z,9.4464
2023-04-18T04:55:45.309Z,9.5195
2023-04-18T04:56:48.257Z,9.5261
2023-04-18T04:57:51.219Z,9.4451
2023-04-18T04:58:54.222Z,9.4819
2023-04-18T04:59:57.113Z,9.5183
2023-04-18T05:01:00.058Z,9.5123
2023-04-18T05:02:03.175Z,9.4854
2023-04-18T05:03:06.028Z,9.5035
2023-04-18T05:04:08.985Z,9.5421
2023-04-18T05:05:11.939Z,9.5230
2023-04-18T05:06:14.873Z,9.4977
2023-04-18T05:07:17.779Z,9.4599
2023-04-18T05:08:20.721Z,9.4242
2023-04-18T05:09:23.678Z,9.4646
2023-04-18T05:10:26.616Z,9.7263
2023-04-18T05:11:29.565Z,9.5996
2023-04-18T05:12:32.525Z,9.6086
2023-04-18T05:13:35.486Z,9.5803
2023-04-18T05:14:38.452Z,9.5072
2023-04-18T05:15:41.371Z,9.6392
2023-04-18T05:16:44.368Z,9.6668
2023-04-18T05:17:47.312Z,9.6212
2023-04-18T05:18:50.221Z,9.5271
2023-04-18T05:19:53.196Z,9.6438
2023-04-18T05:20:56.133Z,9.5641
2023-04-18T05:21:59.079Z,9.4583
2023-04-18T05:23:02.042Z,9.4256
2023-04-18T05:24:04.957Z,9.4979
2023-04-18T05:25:07.917Z,9.5598
2023-04-18T05:26:10.877Z,9.5684
2023-04-18T05:27:13.872Z,9.5421
2023-04-18T05:28:16.779Z,9.4885
2023-04-18T05:29:19.712Z,9.4281
2023-04-18T05:30:22.729Z,9.4796
2023-04-18T05:31:25.634Z,9.5581
2023-04-18T05:32:28.583Z,9.5291
2023-04-18T05:33:31.524Z,9.5404
2023-04-18T05:34:35.319Z,9.5563
2023-04-18T05:35:37.418Z,9.5704
2023-04-18T05:36:40.344Z,9.4388
2023-04-18T05:37:43.320Z,9.5967
2023-04-18T05:38:46.246Z,9.6491
2023-04-18T05:39:49.298Z,9.5552
2023-04-18T05:40:52.227Z,9.5832
2023-04-18T05:41:55.175Z,9.4911
2023-04-18T05:42:58.128Z,9.5830
2023-04-18T05:44:05.319Z,9.5059
2023-04-18T05:45:04.049Z,9.5922
2023-04-18T05:46:07.026Z,9.7157
2023-04-18T05:47:09.950Z,9.7327
2023-04-18T05:48:12.931Z,9.6596
2023-04-18T05:49:15.859Z,9.6228
2023-04-18T05:50:18.788Z,9.6173
2023-04-18T05:51:21.738Z,9.6434
2023-04-18T05:52:24.675Z,9.6212
2023-04-18T05:53:27.654Z,9.6762
2023-04-18T05:54:30.581Z,9.6045
2023-04-18T05:55:33.514Z,9.5832
2023-04-18T05:56:36.477Z,9.7048
2023-04-18T05:57:39.417Z,9.6434
2023-04-18T05:58:42.392Z,9.5782
2023-04-18T05:59:45.340Z,9.6668
2023-04-18T06:00:48.294Z,9.7134
2023-04-18T06:01:51.286Z,9.6933
2023-04-18T06:02:54.320Z,9.7424
2023-04-18T06:03:57.456Z,9.6409
2023-04-18T06:05:00.267Z,9.6947
2023-04-18T06:06:03.152Z,9.6996
2023-04-18T06:07:05.969Z,9.7323
2023-04-18T06:08:08.908Z,9.6945
2023-04-18T06:09:11.868Z,9.6577
2023-04-18T06:10:14.825Z,9.6715
2023-04-18T06:11:17.766Z,9.6612
2023-04-18T06:12:20.693Z,9.7282
2023-04-18T06:13:23.650Z,9.7578
2023-04-18T06:14:26.592Z,9.7656
2023-04-18T06:15:29.552Z,9.7194
2023-04-18T06:16:32.522Z,9.8292
2023-04-18T06:17:35.465Z,9.7884
2023-04-18T06:18:38.411Z,9.7974
2023-04-18T06:19:41.341Z,9.8654
2023-04-18T06:20:44.337Z,9.8656
2023-04-18T06:21:47.246Z,9.8562
2023-04-18T06:22:50.219Z,9.8514
2023-04-18T06:23:53.144Z,9.8664
2023-04-18T06:24:56.092Z,9.9141
2023-04-18T06:25:59.055Z,9.9044
2023-04-18T06:27:02.012Z,9.9258
2023-04-18T06:28:04.932Z,9.9118
2023-04-18T06:29:07.882Z,9.9521
2023-04-18T06:30:10.824Z,10.0018
2023-04-18T06:31:13.849Z,10.0262
2023-04-18T06:32:16.713Z,10.0344
2023-04-18T06:33:19.687Z,10.0503
2023-04-18T06:34:22.617Z,10.0607
2023-04-18T06:35:26.723Z,10.0638
2023-04-18T06:36:28.499Z,10.0846
2023-04-18T06:37:31.436Z,10.1404
2023-04-18T06:38:34.396Z,10.0911
2023-04-18T06:39:37.319Z,10.0967
2023-04-18T06:40:40.278Z,10.1482
2023-04-18T06:41:43.218Z,10.2084
2023-04-18T06:42:46.181Z,9.9013
2023-04-18T06:44:02.019Z,10.1546
2023-04-18T06:44:52.075Z,10.1170
2023-04-18T06:45:55.024Z,10.2150
2023-04-18T06:46:57.980Z,10.2216
2023-04-18T06:48:00.936Z,10.2618
2023-04-18T06:49:03.928Z,10.2670
2023-04-18T06:50:06.833Z,10.3126
2023-04-18T06:51:09.785Z,10.3545
2023-04-18T06:52:12.746Z,10.3676
2023-04-18T06:53:15.676Z,10.5007
2023-04-18T06:54:18.635Z,10.4625
2023-04-18T06:55:21.599Z,10.4459
2023-04-18T06:56:24.517Z,10.5447
2023-04-18T06:57:27.482Z,10.4751
2023-04-18T06:58:30.414Z,10.4223
2023-04-18T06:59:33.369Z,10.4073
2023-04-18T07:00:36.330Z,10.4958
2023-04-18T07:01:39.346Z,10.5077
2023-04-18T07:02:42.399Z,10.6665
2023-04-18T07:03:45.217Z,10.5628
2023-04-18T07:04:48.384Z,10.6437
2023-04-18T07:05:51.083Z,10.6930
2023-04-18T07:06:53.991Z,10.7119
2023-04-18T07:07:56.950Z,10.7472
2023-04-18T07:08:59.943Z,10.6663
2023-04-18T07:10:02.864Z,10.6866
2023-04-18T07:11:05.816Z,10.8937
2023-04-18T07:12:08.764Z,10.8183
2023-04-18T07:13:11.738Z,10.8961
2023-04-18T07:14:14.958Z,10.9120
2023-04-18T07:15:17.584Z,10.9604
2023-04-18T07:16:20.617Z,11.0857
2023-04-18T07:17:23.494Z,11.0837
2023-04-18T07:18:36.773Z,11.1180
2023-04-18T07:19:29.375Z,11.1739
2023-04-18T07:20:32.358Z,11.2790
2023-04-18T07:21:35.379Z,11.2357
2023-04-18T07:22:38.219Z,11.1449
2023-04-18T07:23:41.147Z,11.2603
2023-04-18T07:24:44.136Z,11.3176
2023-04-18T07:25:47.074Z,11.3885
2023-04-18T07:26:50.003Z,11.4434
2023-04-18T07:27:52.948Z,11.3630
2023-04-18T07:28:55.888Z,11.4629
2023-04-18T07:29:58.858Z,11.4812
2023-04-18T07:31:01.881Z,11.5865
2023-04-18T07:32:06.195Z,11.7116
2023-04-18T07:33:07.696Z,11.7137
2023-04-18T07:34:10.657Z,11.6662
2023-04-18T07:35:13.601Z,11.7389
2023-04-18T07:36:16.536Z,11.8509
2023-04-18T07:37:19.493Z,11.8285
2023-04-18T07:38:22.436Z,11.7790
2023-04-18T07:39:25.386Z,11.7359
2023-04-18T07:40:28.344Z,11.8825
2023-04-18T07:41:31.295Z,11.9037
2023-04-18T07:42:34.230Z,11.9425
2023-04-18T07:43:37.190Z,11.9700
2023-04-18T07:44:40.113Z,11.9850
2023-04-18T07:45:43.103Z,11.8872
2023-04-18T07:46:46.092Z,12.1037
2023-04-18T07:47:48.976Z,12.0358
2023-04-18T07:48:51.900Z,12.0908
2023-04-18T07:49:54.857Z,12.1954
2023-04-18T07:50:57.825Z,12.2200
2023-04-18T07:52:00.728Z,12.2603
2023-04-18T07:53:03.680Z,12.2862
2023-04-18T07:54:06.656Z,12.2940
2023-04-18T07:55:09.696Z,12.3122
2023-04-18T07:56:12.563Z,12.3607
2023-04-18T07:57:15.482Z,12.2948
2023-04-18T07:58:18.422Z,12.4546
2023-04-18T07:59:21.383Z,12.5074
2023-04-18T08:00:24.386Z,12.4833
2023-04-18T08:01:27.307Z,12.4550
2023-04-18T08:02:30.330Z,12.5713
2023-04-18T08:03:33.315Z,12.6220
2023-04-18T08:04:36.222Z,12.7750
2023-04-18T08:05:39.100Z,12.8952
2023-04-18T08:06:42.013Z,12.8274
2023-04-18T08:07:44.941Z,12.8163
2023-04-18T08:08:47.889Z,12.8790
2023-04-18T08:09:50.845Z,12.8964
2023-04-18T08:10:53.861Z,12.7426
2023-04-18T08:11:56.757Z,12.8551
2023-04-18T08:12:59.687Z,12.8545
2023-04-18T08:14:02.645Z,13.0474
2023-04-18T08:15:05.599Z,12.7898
2023-04-18T08:16:08.586Z,12.8716
2023-04-18T08:17:11.489Z,12.8617
2023-04-18T08:18:14.438Z,12.9100
2023-04-18T08:19:17.398Z,12.8490
2023-04-18T08:20:20.401Z,12.9375
2023-04-18T08:21:23.300Z,12.8857
2023-04-18T08:22:26.241Z,12.8853
2023-04-18T08:23:29.266Z,12.9244
2023-04-18T08:24:32.144Z,12.9410
2023-04-18T08:25:35.080Z,12.7674
2023-04-18T08:26:38.107Z,12.8880
2023-04-18T08:27:40.991Z,12.8972
2023-04-18T08:28:45.951Z,12.8880
2023-04-18T08:29:46.994Z,13.0055
2023-04-18T08:30:49.844Z,12.9983
2023-04-18T08:31:52.901Z,12.9459
2023-04-18T08:32:55.738Z,12.9728
2023-04-18T08:33:58.679Z,12.9718
2023-04-18T08:35:01.657Z,12.9289
2023-04-18T08:36:04.592Z,13.0217
2023-04-18T08:37:07.521Z,12.9989
2023-04-18T08:38:10.479Z,12.7278
2023-04-18T08:39:13.897Z,12.9016
2023-04-18T08:40:16.371Z,12.9316
2023-04-18T08:41:19.328Z,12.9858
2023-04-18T08:42:22.247Z,12.9611
2023-04-18T08:43:25.238Z,12.8443
2023-04-18T08:44:28.198Z,12.7806
2023-04-18T08:45:31.177Z,12.8716
2023-04-18T08:46:34.156Z,12.9227
2023-04-18T08:47:37.124Z,12.6041
2023-04-18T08:48:39.941Z,12.8200
2023-04-18T08:49:43.031Z,12.6692
2023-04-18T08:50:45.852Z,12.5982
2023-04-18T08:51:48.807Z,12.7194
2023-04-18T08:52:51.733Z,12.7915
2023-04-18T08:53:54.692Z,12.7426
2023-04-18T08:54:57.720Z,12.0647
2023-04-18T08:56:00.609Z,12.6052
2023-04-18T08:57:03.564Z,12.5637
2023-04-18T08:58:06.494Z,12.6167
2023-04-18T08:59:09.439Z,12.5967
2023-04-18T09:00:12.387Z,12.6337
2023-04-18T09:01:15.380Z,12.5349
2023-04-18T09:02:18.315Z,12.4889
2023-04-18T09:03:21.347Z,12.5711
2023-04-18T09:04:24.205Z,12.5600
2023-04-18T09:05:27.112Z,12.5667
2023-04-18T09:06:30.084Z,12.5526
2023-04-18T09:07:33.128Z,12.6150
2023-04-18T09:08:36.001Z,12.6218
2023-04-18T09:09:38.920Z,12.4823
2023-04-18T09:10:42.798Z,12.6111
2023-04-18T09:11:44.803Z,12.6602
2023-04-18T09:12:47.765Z,12.5234
2023-04-18T09:13:50.725Z,12.6368
2023-04-18T09:14:53.666Z,12.6370
2023-04-18T09:15:56.637Z,12.7512
2023-04-18T09:16:59.626Z,12.7327
2023-04-18T09:18:02.771Z,12.6725
2023-04-18T09:19:06.890Z,12.6810
2023-04-18T09:20:08.418Z,12.6933
2023-04-18T09:21:11.355Z,12.5961
2023-04-18T09:22:14.328Z,12.7054
2023-04-18T09:23:17.272Z,12.6364
2023-04-18T09:24:20.243Z,12.6440
2023-04-18T09:25:23.199Z,12.6458
2023-04-18T09:26:26.211Z,12.6614
2023-04-18T09:27:29.058Z,12.7678
2023-04-18T09:28:31.990Z,12.6840
2023-04-18T09:29:34.972Z,12.8297
2023-04-18T09:30:37.977Z,12.7978
2023-04-18T09:31:40.845Z,12.9085
2023-04-18T09:32:43.853Z,12.8629
2023-04-18T09:33:46.732Z,12.7719
2023-04-18T09:34:49.670Z,12.8664
2023-04-18T09:35:52.623Z,12.8549
2023-04-18T09:36:55.656Z,12.8658
2023-04-18T09:37:58.526Z,13.0225
2023-04-18T09:39:01.486Z,12.7216
2023-04-18T09:40:04.411Z,12.9511
2023-04-18T09:41:07.383Z,13.0560
2023-04-18T09:42:10.303Z,13.1873
2023-04-18T09:43:13.272Z,13.1844
2023-04-18T09:44:16.210Z,13.2945
2023-04-18T09:45:19.149Z,13.3475
2023-04-18T09:46:22.110Z,13.4488
2023-04-18T09:47:25.072Z,13.5535
2023-04-18T09:48:28.119Z,13.5141
2023-04-18T09:49:31.033Z,13.5895
2023-04-18T09:50:33.954Z,13.6365
2023-04-18T09:51:36.882Z,13.6591
2023-04-18T09:52:39.858Z,13.7164
2023-04-18T09:53:42.807Z,13.8021
2023-04-18T09:54:48.122Z,13.8538
2023-04-18T09:55:48.666Z,13.8840
2023-04-18T09:56:51.638Z,14.0475
2023-04-18T09:57:54.566Z,14.1090
2023-04-18T09:58:57.520Z,14.1730
2023-04-18T10:00:00.508Z,14.0533
2023-04-18T10:01:03.486Z,14.2579
2023-04-18T10:02:06.564Z,14.3452
2023-04-18T10:03:09.419Z,14.5845
2023-04-18T10:04:12.525Z,14.8339
2023-04-18T10:05:15.258Z,15.0886
2023-04-18T10:06:18.150Z,14.9579
2023-04-18T10:07:21.106Z,14.9380
2023-04-18T10:08:24.081Z,15.2597
2023-04-18T10:09:27.000Z,15.3568
2023-04-18T10:10:29.957Z,15.5146
2023-04-18T10:11:32.906Z,15.5982
2023-04-18T10:12:35.839Z,15.6573
2023-04-18T10:13:38.951Z,15.6892
2023-04-18T10:14:41.733Z,15.6962
2023-04-18T10:15:45.326Z,15.7718
2023-04-18T10:16:49.268Z,15.8247
2023-04-18T10:18:02.814Z,15.7950
2023-04-18T10:18:53.547Z,15.8492
2023-04-18T10:19:56.479Z,15.8297
2023-04-18T10:20:59.427Z,16.0041
2023-04-18T10:22:02.410Z,15.9014
2023-04-18T10:23:05.341Z,15.8973
2023-04-18T10:24:08.299Z,15.9920
2023-04-18T10:25:11.214Z,15.8095
2023-04-18T10:26:14.187Z,16.1341
2023-04-18T10:27:17.108Z,16.0240
2023-04-18T10:28:20.090Z,16.1590
2023-04-18T10:29:23.002Z,16.2031
2023-04-18T10:30:25.969Z,15.8689
2023-04-18T10:31:28.979Z,16.0534
2023-04-18T10:32:31.881Z,15.8512
2023-04-18T10:33:34.862Z,15.9942
2023-04-18T10:34:37.805Z,15.9876
2023-04-18T10:35:41.398Z,15.9872
2023-04-18T10:36:43.653Z,15.8439
2023-04-18T10:37:46.614Z,15.9104
2023-04-18T10:38:49.600Z,15.9470
2023-04-18T10:39:52.528Z,15.9509
2023-04-18T10:40:55.471Z,15.9433
2023-04-18T10:41:58.380Z,15.8971
2023-04-18T10:43:01.345Z,15.8463
2023-04-18T10:44:04.701Z,15.8223
2023-04-18T10:45:07.405Z,15.6918
2023-04-18T10:46:17.323Z,15.7481
2023-04-18T10:47:13.133Z,15.5565
2023-04-18T10:48:16.097Z,14.9947
2023-04-18T10:49:19.034Z,15.5273
2023-04-18T10:50:21.959Z,15.6372
2023-04-18T10:51:24.930Z,15.7040
2023-04-18T10:52:27.870Z,15.6863
2023-04-18T10:53:30.890Z,15.6317
2023-04-18T10:54:33.763Z,15.6487
2023-04-18T10:55:36.711Z,15.6101
2023-04-18T10:56:39.661Z,15.6732
2023-04-18T10:57:42.614Z,15.5415
2023-04-18T10:58:45.596Z,15.6614
2023-04-18T10:59:48.513Z,15.6237
2023-04-18T11:00:51.547Z,15.7050
2023-04-18T11:01:54.438Z,15.7200
2023-04-18T11:02:57.452Z,15.7348
2023-04-18T11:04:00.456Z,15.7313
2023-04-18T11:05:03.244Z,15.6617
2023-04-18T11:06:06.202Z,15.8217
2023-04-18T11:07:09.181Z,15.7886
2023-04-18T11:08:12.110Z,15.8962
2023-04-18T11:09:15.086Z,15.9371
2023-04-18T11:10:18.036Z,15.7777
2023-04-18T11:11:20.953Z,16.1505
2023-04-18T11:12:23.952Z,16.3681
2023-04-18T11:13:26.845Z,16.4743
2023-04-18T11:14:29.801Z,16.5020
2023-04-18T11:15:32.741Z,16.6433
2023-04-18T11:16:35.926Z,16.9888
2023-04-18T11:17:38.649Z,16.9941
2023-04-18T11:18:41.595Z,16.9054
2023-04-18T11:19:44.569Z,17.0303
2023-04-18T11:20:47.503Z,17.0572
2023-04-18T11:21:50.437Z,17.1375
2023-04-18T11:22:53.407Z,16.8779
2023-04-18T11:23:56.332Z,16.7900
2023-04-18T11:24:59.283Z,17.0979
2023-04-18T11:26:02.356Z,17.0825
2023-04-18T11:27:05.252Z,17.1581
2023-04-18T11:28:08.192Z,16.9543
2023-04-18T11:29:11.090Z,16.8015
2023-04-18T11:30:14.031Z,16.9325
2023-04-18T11:31:17.014Z,17.2078
2023-04-18T11:32:19.974Z,17.4514
2023-04-18T11:33:22.968Z,17.4699
2023-04-18T11:34:25.815Z,17.6258
2023-04-18T11:35:28.817Z,17.4419
2023-04-18T11:36:31.737Z,17.4267
2023-04-18T11:37:34.689Z,17.6718
2023-04-18T11:38:37.616Z,17.7003
2023-04-18T11:39:40.567Z,17.6706
2023-04-18T11:40:43.516Z,17.6523
2023-04-18T11:41:46.500Z,17.8503
2023-04-18T11:42:49.420Z,18.0758
2023-04-18T11:43:52.406Z,17.9729
2023-04-18T11:44:55.316Z,17.8363
2023-04-18T11:45:58.307Z,17.9228
2023-04-18T11:47:01.219Z,17.8955
2023-04-18T11:48:04.241Z,17.9345
2023-04-18T11:49:07.132Z,17.8891
2023-04-18T11:50:10.202Z,17.9195
2023-04-18T11:51:13.058Z,17.9097
2023-04-18T11:52:15.963Z,17.7568
2023-04-18T11:53:18.909Z,17.4167
2023-04-18T11:54:21.890Z,17.8828
2023-04-18T11:55:24.816Z,17.9931
2023-04-18T11:56:28.102Z,17.9563
2023-04-18T11:57:30.717Z,17.7320
2023-04-18T11:58:33.692Z,17.6260
2023-04-18T11:59:36.638Z,17.9119
2023-04-18T12:00:39.679Z,17.7601
2023-04-18T12:01:42.520Z,17.9195
2023-04-18T12:02:45.575Z,18.1381
2023-04-18T12:03:48.716Z,17.9750
2023-04-18T12:04:51.659Z,18.5585
2023-04-18T12:05:54.476Z,18.1260
2023-04-18T12:06:57.296Z,18.6465
2023-04-18T12:08:00.258Z,18.8153
2023-04-18T12:09:03.217Z,18.6951
2023-04-18T12:10:06.183Z,18.7405
2023-04-18T12:11:09.143Z,18.5943
2023-04-18T12:12:12.082Z,18.9737
2023-04-18T12:13:15.048Z,19.1049
2023-04-18T12:14:18.002Z,19.0897
2023-04-18T12:15:20.968Z,19.1358
2023-04-18T12:16:23.953Z,19.1316
2023-04-18T12:17:26.942Z,19.1764
2023-04-18T12:18:29.868Z,18.9330
2023-04-18T12:19:32.830Z,19.1193
2023-04-18T12:20:35.743Z,19.0310
2023-04-18T12:21:38.708Z,19.2212
2023-04-18T12:22:41.669Z,19.3336
2023-04-18T12:23:44.607Z,19.0209
2023-04-18T12:24:47.581Z,19.3241
2023-04-18T12:25:50.516Z,19.1407
2023-04-18T12:26:53.578Z,18.7586
2023-04-18T12:27:56.514Z,18.3515
2023-04-18T12:28:59.405Z,18.9386
2023-04-18T12:30:02.343Z,18.8519
2023-04-18T12:31:05.328Z,19.1177
2023-04-18T12:32:08.256Z,19.0168
2023-04-18T12:33:11.228Z,18.2745
2023-04-18T12:34:14.348Z,18.4924
2023-04-18T12:35:17.144Z,18.1884
2023-04-18T12:36:20.065Z,18.4020
2023-04-18T12:37:23.027Z,18.1294
2023-04-18T12:38:26.000Z,17.9454
2023-04-18T12:39:28.976Z,17.9454
2023-04-18T12:40:32.081Z,18.3258
2023-04-18T12:41:34.843Z,18.2720
2023-04-18T12:42:37.793Z,18.3071
2023-04-18T12:43:40.769Z,18.1903
2023-04-18T12:44:43.944Z,18.0574
2023-04-18T12:45:46.722Z,18.1307
2023-04-18T12:46:49.745Z,18.1769
2023-04-18T12:47:52.750Z,18.2229
2023-04-18T12:48:55.586Z,18.0799
2023-04-18T12:49:58.499Z,18.0797
2023-04-18T12:51:01.438Z,18.2550
2023-04-18T12:52:04.406Z,17.8891
2023-04-18T12:53:07.455Z,18.0912
2023-04-18T12:54:10.415Z,18.1816